Portada
METAR-TAF:

METAR-TAF

Aeroports :

Burayda, Aràbia Saudita

latitud: 26-18N, longitud: 043-46E, altitud: 648 m

Observació

L'informe es va fer fa 22 minuts, a les 17:00 UTC
Vent 5 kt del Est/Sud-Est
Temperatura 41°C
Humitat 12%
Pressió 1002 hPa
Visibilitat 10 km o més
sense núvols per sota de 1500 mi sense presència de cumulonimbus.

METAR: OEGS 231700Z 11005KT CAVOK 41/06 Q1002

Hora: 20:22 (17:22 UTC)

Pronòstic

L'informe es va fer fa 6 hores i 22 minuts, a les 11:00 UTC
Pronòstic vàlid del 23 a les 12 UTC al 24 a les 18 UTC
Vent 10 kt del Oest/Sud-Oest
Visibilitat 10 km o més
sense núvols per sota de 1500 mi sense presència de cumulonimbus.
Evolucionant progressivament
l' 23 a les 18 UTC al 23 a les 20 UTC
Vent 8 kt del Nord/Nord-Oest
Evolucionant progressivament
l' 24 a les 06 UTC al 24 a les 08 UTC
Vent 12 kt del Nord/Nord-Est

TAF: OEGS 231100Z 2312/2418 25010KT CAVOK BECMG 2318/2320 34008KT BECMG 2406/2408 02012KT

Observacions i pronòstics meteorològics de més de 4000 aeroports (METAR i TAF).

Les estacions disponibles són els punts grocs i vermells al mapa.

Posi el ratolí al punt desitjat per veure el nom de l'estació.

Feu clic per veure les observacions i els pronòstics meteorològics.

Per canviar el mapa: feu clic els botons verds amb una creu de color negre per apropar; al botó verd amb un guió per allunyar la imatge; o en les fletxes verdes per a mapes adjacents.


METAR-TAF: